sensor_id;sensor_type;location;lat;lon;timestamp;noise_LAeq;noise_LA_min;noise_LA_max;noise_LA01;noise_LA95
72686;Laerm;61365;52.162;4.500;2023-02-05T00:01:23;47.67;42.82;56.79;;
72686;Laerm;61365;52.162;4.500;2023-02-05T00:03:50;47.61;42.42;57.54;;
72686;Laerm;61365;52.162;4.500;2023-02-05T00:06:16;47.71;42.97;56.51;;
72686;Laerm;61365;52.162;4.500;2023-02-05T00:08:42;47.70;42.64;56.87;;
72686;Laerm;61365;52.162;4.500;2023-02-05T00:11:09;47.72;40.21;57.09;;
72686;Laerm;61365;52.162;4.500;2023-02-05T00:13:36;46.78;34.70;56.30;;
72686;Laerm;61365;52.162;4.500;2023-02-05T00:16:14;47.34;34.32;57.37;;
72686;Laerm;61365;52.162;4.500;2023-02-05T00:18:42;47.75;42.86;57.07;;
72686;Laerm;61365;52.162;4.500;2023-02-05T00:21:09;47.73;42.90;56.27;;
72686;Laerm;61365;52.162;4.500;2023-02-05T00:23:36;47.70;41.98;58.76;;
72686;Laerm;61365;52.162;4.500;2023-02-05T00:26:04;47.80;42.69;57.49;;
72686;Laerm;61365;52.162;4.500;2023-02-05T00:28:35;47.77;43.11;57.19;;
72686;Laerm;61365;52.162;4.500;2023-02-05T00:31:13;47.79;42.44;57.34;;
72686;Laerm;61365;52.162;4.500;2023-02-05T00:33:40;47.73;42.91;56.63;;
72686;Laerm;61365;52.162;4.500;2023-02-05T00:36:10;47.75;42.09;57.34;;
72686;Laerm;61365;52.162;4.500;2023-02-05T00:38:37;47.88;38.51;57.39;;
72686;Laerm;61365;52.162;4.500;2023-02-05T00:41:04;47.76;39.96;57.18;;
72686;Laerm;61365;52.162;4.500;2023-02-05T00:43:30;47.91;42.82;57.90;;
72686;Laerm;61365;52.162;4.500;2023-02-05T00:45:58;47.87;42.92;55.90;;
72686;Laerm;61365;52.162;4.500;2023-02-05T00:48:24;47.56;35.52;58.94;;
72686;Laerm;61365;52.162;4.500;2023-02-05T00:50:52;47.83;38.69;58.11;;
72686;Laerm;61365;52.162;4.500;2023-02-05T00:53:21;47.84;38.52;58.41;;
72686;Laerm;61365;52.162;4.500;2023-02-05T00:55:48;47.89;42.61;56.21;;
72686;Laerm;61365;52.162;4.500;2023-02-05T00:58:15;47.87;39.27;56.90;;
72686;Laerm;61365;52.162;4.500;2023-02-05T01:00:42;47.97;42.92;56.58;;
72686;Laerm;61365;52.162;4.500;2023-02-05T01:03:11;47.92;42.86;57.20;;
72686;Laerm;61365;52.162;4.500;2023-02-05T01:05:39;47.96;43.03;62.88;;
72686;Laerm;61365;52.162;4.500;2023-02-05T01:08:07;47.20;35.19;56.96;;
72686;Laerm;61365;52.162;4.500;2023-02-05T01:10:34;47.91;40.11;56.53;;
72686;Laerm;61365;52.162;4.500;2023-02-05T01:13:00;47.89;40.04;57.02;;
72686;Laerm;61365;52.162;4.500;2023-02-05T01:15:27;47.93;40.56;57.05;;
72686;Laerm;61365;52.162;4.500;2023-02-05T01:17:53;48.02;43.19;56.44;;
72686;Laerm;61365;52.162;4.500;2023-02-05T01:20:20;47.97;42.88;56.20;;
72686;Laerm;61365;52.162;4.500;2023-02-05T01:22:50;48.10;42.98;58.21;;
72686;Laerm;61365;52.162;4.500;2023-02-05T01:25:16;48.05;40.34;57.17;;
72686;Laerm;61365;52.162;4.500;2023-02-05T01:27:43;47.98;42.26;57.25;;
72686;Laerm;61365;52.162;4.500;2023-02-05T01:30:10;46.98;36.45;57.36;;
72686;Laerm;61365;52.162;4.500;2023-02-05T01:32:38;47.58;36.86;57.63;;
72686;Laerm;61365;52.162;4.500;2023-02-05T01:35:06;48.04;39.09;57.68;;
72686;Laerm;61365;52.162;4.500;2023-02-05T01:37:33;48.04;42.84;57.17;;
72686;Laerm;61365;52.162;4.500;2023-02-05T01:39:59;48.05;42.64;57.21;;
72686;Laerm;61365;52.162;4.500;2023-02-05T01:42:28;48.04;42.75;57.51;;
72686;Laerm;61365;52.162;4.500;2023-02-05T01:48:00;47.92;38.18;57.33;;
72686;Laerm;61365;52.162;4.500;2023-02-05T01:50:45;48.00;43.06;56.93;;
72686;Laerm;61365;52.162;4.500;2023-02-05T01:53:28;47.92;42.90;58.04;;
72686;Laerm;61365;52.162;4.500;2023-02-05T01:56:01;47.87;38.66;63.00;;
72686;Laerm;61365;52.162;4.500;2023-02-05T01:58:58;47.48;35.36;56.61;;
72686;Laerm;61365;52.162;4.500;2023-02-05T02:01:21;47.94;42.70;58.51;;
72686;Laerm;61365;52.162;4.500;2023-02-05T02:03:50;47.98;42.67;57.12;;
72686;Laerm;61365;52.162;4.500;2023-02-05T02:06:18;47.91;37.78;55.87;;
72686;Laerm;61365;52.162;4.500;2023-02-05T02:08:45;48.05;40.71;57.11;;
72686;Laerm;61365;52.162;4.500;2023-02-05T02:11:16;47.98;42.63;57.30;;
72686;Laerm;61365;52.162;4.500;2023-02-05T02:13:47;47.98;42.34;56.64;;
72686;Laerm;61365;52.162;4.500;2023-02-05T02:16:16;48.00;42.43;57.48;;
72686;Laerm;61365;52.162;4.500;2023-02-05T02:18:45;48.01;42.74;56.45;;
72686;Laerm;61365;52.162;4.500;2023-02-05T02:27:55;48.06;42.93;58.02;;
72686;Laerm;61365;52.162;4.500;2023-02-05T02:30:51;48.02;40.76;57.83;;
72686;Laerm;61365;52.162;4.500;2023-02-05T02:38:52;47.94;42.93;56.36;;
72686;Laerm;61365;52.162;4.500;2023-02-05T02:47:10;48.03;39.13;57.54;;
72686;Laerm;61365;52.162;4.500;2023-02-05T02:49:49;48.10;37.16;56.80;;
72686;Laerm;61365;52.162;4.500;2023-02-05T02:52:20;47.93;38.67;57.67;;
72686;Laerm;61365;52.162;4.500;2023-02-05T02:54:52;48.01;42.48;56.68;;
72686;Laerm;61365;52.162;4.500;2023-02-05T02:57:24;48.02;42.77;58.12;;
72686;Laerm;61365;52.162;4.500;2023-02-05T02:59:56;47.97;42.94;57.91;;
72686;Laerm;61365;52.162;4.500;2023-02-05T03:02:30;47.99;42.84;57.93;;
72686;Laerm;61365;52.162;4.500;2023-02-05T03:05:04;47.97;42.74;57.48;;
72686;Laerm;61365;52.162;4.500;2023-02-05T03:07:45;47.79;37.02;58.77;;
72686;Laerm;61365;52.162;4.500;2023-02-05T03:10:25;46.67;37.86;58.69;;
72686;Laerm;61365;52.162;4.500;2023-02-05T03:12:55;46.75;37.95;57.30;;
72686;Laerm;61365;52.162;4.500;2023-02-05T03:15:22;46.70;38.16;56.98;;
72686;Laerm;61365;52.162;4.500;2023-02-05T03:17:52;46.82;38.18;58.38;;
72686;Laerm;61365;52.162;4.500;2023-02-05T03:20:27;47.71;35.10;56.53;;
72686;Laerm;61365;52.162;4.500;2023-02-05T03:22:55;47.87;42.97;56.99;;
72686;Laerm;61365;52.162;4.500;2023-02-05T03:25:24;47.92;43.06;57.05;;
72686;Laerm;61365;52.162;4.500;2023-02-05T03:27:53;47.95;43.42;57.00;;
72686;Laerm;61365;52.162;4.500;2023-02-05T03:30:23;47.90;40.27;57.05;;
72686;Laerm;61365;52.162;4.500;2023-02-05T03:36:00;47.53;34.71;56.04;;
72686;Laerm;61365;52.162;4.500;2023-02-05T03:38:45;47.88;42.49;58.18;;
72686;Laerm;61365;52.162;4.500;2023-02-05T03:41:35;47.84;42.56;56.87;;
72686;Laerm;61365;52.162;4.500;2023-02-05T03:47:53;47.88;42.44;57.29;;
72686;Laerm;61365;52.162;4.500;2023-02-05T03:56:56;47.78;42.25;59.44;;
72686;Laerm;61365;52.162;4.500;2023-02-05T03:59:26;47.69;42.84;59.03;;
72686;Laerm;61365;52.162;4.500;2023-02-05T04:01:54;47.71;40.23;59.08;;
72686;Laerm;61365;52.162;4.500;2023-02-05T04:04:21;47.72;42.39;56.34;;
72686;Laerm;61365;52.162;4.500;2023-02-05T04:06:51;47.69;42.66;56.96;;
72686;Laerm;61365;52.162;4.500;2023-02-05T04:09:18;47.60;42.51;56.52;;
72686;Laerm;61365;52.162;4.500;2023-02-05T04:11:45;47.49;37.98;57.66;;
72686;Laerm;61365;52.162;4.500;2023-02-05T04:14:11;47.53;42.43;57.22;;
72686;Laerm;61365;52.162;4.500;2023-02-05T04:16:38;47.71;42.25;57.88;;
72686;Laerm;61365;52.162;4.500;2023-02-05T04:19:04;47.83;42.40;57.21;;
72686;Laerm;61365;52.162;4.500;2023-02-05T04:21:30;47.75;43.02;57.27;;
72686;Laerm;61365;52.162;4.500;2023-02-05T04:23:57;47.82;42.77;57.08;;
72686;Laerm;61365;52.162;4.500;2023-02-05T04:26:24;47.87;43.06;58.57;;
72686;Laerm;61365;52.162;4.500;2023-02-05T04:28:50;47.94;42.33;56.86;;
72686;Laerm;61365;52.162;4.500;2023-02-05T04:31:16;47.80;38.09;57.51;;
72686;Laerm;61365;52.162;4.500;2023-02-05T04:33:43;47.85;42.84;58.35;;
72686;Laerm;61365;52.162;4.500;2023-02-05T04:36:09;47.84;37.43;57.71;;
72686;Laerm;61365;52.162;4.500;2023-02-05T04:38:36;47.67;43.01;57.30;;
72686;Laerm;61365;52.162;4.500;2023-02-05T04:41:03;47.84;43.04;60.66;;
72686;Laerm;61365;52.162;4.500;2023-02-05T04:43:29;47.61;41.01;58.91;;
72686;Laerm;61365;52.162;4.500;2023-02-05T04:45:56;47.13;40.18;58.53;;
72686;Laerm;61365;52.162;4.500;2023-02-05T04:48:22;47.91;40.38;57.78;;
72686;Laerm;61365;52.162;4.500;2023-02-05T04:50:49;47.88;39.36;58.01;;
72686;Laerm;61365;52.162;4.500;2023-02-05T04:53:18;47.92;42.67;56.67;;
72686;Laerm;61365;52.162;4.500;2023-02-05T04:55:44;48.01;43.29;57.64;;
72686;Laerm;61365;52.162;4.500;2023-02-05T04:58:11;48.02;38.95;57.77;;
72686;Laerm;61365;52.162;4.500;2023-02-05T05:00:37;48.07;42.37;58.29;;
72686;Laerm;61365;52.162;4.500;2023-02-05T05:03:04;48.06;43.05;56.82;;
72686;Laerm;61365;52.162;4.500;2023-02-05T05:05:30;48.07;43.22;57.15;;
72686;Laerm;61365;52.162;4.500;2023-02-05T05:07:58;48.01;42.64;56.61;;
72686;Laerm;61365;52.162;4.500;2023-02-05T05:10:26;47.97;38.37;58.06;;
72686;Laerm;61365;52.162;4.500;2023-02-05T05:12:52;48.05;42.75;57.68;;
72686;Laerm;61365;52.162;4.500;2023-02-05T05:15:19;47.92;42.52;56.77;;
72686;Laerm;61365;52.162;4.500;2023-02-05T05:17:45;47.93;42.94;56.90;;
72686;Laerm;61365;52.162;4.500;2023-02-05T05:20:12;48.04;43.22;58.49;;
72686;Laerm;61365;52.162;4.500;2023-02-05T05:22:38;48.14;43.06;56.91;;
72686;Laerm;61365;52.162;4.500;2023-02-05T05:25:05;48.04;43.16;56.51;;
72686;Laerm;61365;52.162;4.500;2023-02-05T05:27:31;48.10;40.20;56.70;;
72686;Laerm;61365;52.162;4.500;2023-02-05T05:29:58;48.14;43.39;58.46;;
72686;Laerm;61365;52.162;4.500;2023-02-05T05:32:24;48.13;37.88;57.27;;
72686;Laerm;61365;52.162;4.500;2023-02-05T05:34:50;48.05;38.39;57.26;;
72686;Laerm;61365;52.162;4.500;2023-02-05T05:37:17;48.11;42.33;57.56;;
72686;Laerm;61365;52.162;4.500;2023-02-05T05:39:43;48.03;37.54;57.32;;
72686;Laerm;61365;52.162;4.500;2023-02-05T05:42:28;48.20;43.31;57.15;;
72686;Laerm;61365;52.162;4.500;2023-02-05T05:45:13;48.15;41.74;57.34;;
72686;Laerm;61365;52.162;4.500;2023-02-05T05:47:39;48.22;42.68;57.39;;
72686;Laerm;61365;52.162;4.500;2023-02-05T05:50:06;48.28;40.51;57.00;;
72686;Laerm;61365;52.162;4.500;2023-02-05T05:52:33;48.22;42.94;58.95;;
72686;Laerm;61365;52.162;4.500;2023-02-05T05:54:59;48.23;42.16;63.19;;
72686;Laerm;61365;52.162;4.500;2023-02-05T05:57:28;48.11;42.26;56.95;;
72686;Laerm;61365;52.162;4.500;2023-02-05T05:59:55;48.24;43.16;57.38;;
72686;Laerm;61365;52.162;4.500;2023-02-05T06:02:21;48.19;39.20;56.64;;
72686;Laerm;61365;52.162;4.500;2023-02-05T06:04:48;48.10;38.12;57.14;;
72686;Laerm;61365;52.162;4.500;2023-02-05T06:07:14;48.24;39.38;57.20;;
72686;Laerm;61365;52.162;4.500;2023-02-05T06:09:41;48.20;42.67;57.34;;
72686;Laerm;61365;52.162;4.500;2023-02-05T06:12:07;48.11;38.36;56.01;;
72686;Laerm;61365;52.162;4.500;2023-02-05T06:14:34;47.68;35.03;56.83;;
72686;Laerm;61365;52.162;4.500;2023-02-05T06:17:00;46.70;35.36;56.87;;
72686;Laerm;61365;52.162;4.500;2023-02-05T06:19:27;48.01;41.95;56.86;;
72686;Laerm;61365;52.162;4.500;2023-02-05T06:21:53;48.14;41.18;57.42;;
72686;Laerm;61365;52.162;4.500;2023-02-05T06:24:19;48.10;42.15;57.00;;
72686;Laerm;61365;52.162;4.500;2023-02-05T06:26:46;48.16;38.00;56.83;;
72686;Laerm;61365;52.162;4.500;2023-02-05T06:29:12;48.03;37.85;57.23;;
72686;Laerm;61365;52.162;4.500;2023-02-05T06:31:38;48.10;39.67;57.95;;
72686;Laerm;61365;52.162;4.500;2023-02-05T06:34:05;48.08;42.07;56.60;;
72686;Laerm;61365;52.162;4.500;2023-02-05T06:36:31;48.04;42.75;57.14;;
72686;Laerm;61365;52.162;4.500;2023-02-05T06:38:58;48.06;41.95;57.25;;
72686;Laerm;61365;52.162;4.500;2023-02-05T06:41:24;47.01;34.86;56.21;;
72686;Laerm;61365;52.162;4.500;2023-02-05T06:43:50;47.57;35.08;61.63;;
72686;Laerm;61365;52.162;4.500;2023-02-05T06:46:17;48.14;39.56;58.22;;
72686;Laerm;61365;52.162;4.500;2023-02-05T06:48:43;48.09;42.44;56.75;;
72686;Laerm;61365;52.162;4.500;2023-02-05T06:51:10;48.12;42.79;57.94;;
72686;Laerm;61365;52.162;4.500;2023-02-05T06:53:36;48.10;39.17;56.90;;
72686;Laerm;61365;52.162;4.500;2023-02-05T06:56:03;48.09;42.32;57.70;;
72686;Laerm;61365;52.162;4.500;2023-02-05T06:58:30;48.14;42.53;57.11;;
72686;Laerm;61365;52.162;4.500;2023-02-05T07:00:56;48.10;42.42;57.20;;
72686;Laerm;61365;52.162;4.500;2023-02-05T07:03:23;48.10;38.18;58.12;;
72686;Laerm;61365;52.162;4.500;2023-02-05T07:05:49;48.11;42.63;56.68;;
72686;Laerm;61365;52.162;4.500;2023-02-05T07:08:16;48.04;36.82;57.88;;
72686;Laerm;61365;52.162;4.500;2023-02-05T07:10:42;46.65;35.10;55.55;;
72686;Laerm;61365;52.162;4.500;2023-02-05T07:13:09;48.04;37.07;57.25;;
72686;Laerm;61365;52.162;4.500;2023-02-05T07:15:35;47.39;35.76;56.98;;
72686;Laerm;61365;52.162;4.500;2023-02-05T07:18:03;47.84;34.78;56.81;;
72686;Laerm;61365;52.162;4.500;2023-02-05T07:20:30;48.05;42.31;57.62;;
72686;Laerm;61365;52.162;4.500;2023-02-05T07:23:00;48.06;42.44;58.16;;
72686;Laerm;61365;52.162;4.500;2023-02-05T07:25:26;48.17;42.17;57.37;;
72686;Laerm;61365;52.162;4.500;2023-02-05T07:27:53;46.86;35.97;56.52;;
72686;Laerm;61365;52.162;4.500;2023-02-05T07:30:20;47.93;37.55;56.64;;
72686;Laerm;61365;52.162;4.500;2023-02-05T07:32:46;48.09;39.31;57.26;;
72686;Laerm;61365;52.162;4.500;2023-02-05T07:35:12;48.18;41.22;58.06;;
72686;Laerm;61365;52.162;4.500;2023-02-05T07:37:39;47.95;38.73;57.70;;
72686;Laerm;61365;52.162;4.500;2023-02-05T07:40:06;48.05;37.67;57.11;;
72686;Laerm;61365;52.162;4.500;2023-02-05T07:42:33;48.14;35.07;65.49;;
72686;Laerm;61365;52.162;4.500;2023-02-05T07:44:59;48.18;41.51;58.13;;
72686;Laerm;61365;52.162;4.500;2023-02-05T07:47:26;48.15;37.73;57.12;;
72686;Laerm;61365;52.162;4.500;2023-02-05T07:49:52;48.17;42.02;56.84;;
72686;Laerm;61365;52.162;4.500;2023-02-05T07:52:19;48.08;42.17;57.34;;
72686;Laerm;61365;52.162;4.500;2023-02-05T07:54:45;48.12;41.62;57.41;;
72686;Laerm;61365;52.162;4.500;2023-02-05T07:57:12;48.20;42.62;57.08;;
72686;Laerm;61365;52.162;4.500;2023-02-05T07:59:38;48.16;40.46;57.75;;
72686;Laerm;61365;52.162;4.500;2023-02-05T08:02:05;48.10;41.55;60.11;;
72686;Laerm;61365;52.162;4.500;2023-02-05T08:04:31;48.18;41.52;57.94;;
72686;Laerm;61365;52.162;4.500;2023-02-05T08:06:58;47.61;35.78;57.02;;
72686;Laerm;61365;52.162;4.500;2023-02-05T08:09:24;48.09;37.12;56.92;;
72686;Laerm;61365;52.162;4.500;2023-02-05T08:11:51;48.08;42.58;57.78;;
72686;Laerm;61365;52.162;4.500;2023-02-05T08:14:17;48.14;39.03;56.65;;
72686;Laerm;61365;52.162;4.500;2023-02-05T08:16:44;47.68;36.90;56.69;;
72686;Laerm;61365;52.162;4.500;2023-02-05T08:19:15;46.92;36.70;58.37;;
72686;Laerm;61365;52.162;4.500;2023-02-05T08:21:43;46.91;35.26;63.06;;
72686;Laerm;61365;52.162;4.500;2023-02-05T08:24:09;47.10;35.09;58.60;;
72686;Laerm;61365;52.162;4.500;2023-02-05T08:26:36;48.06;37.61;57.23;;
72686;Laerm;61365;52.162;4.500;2023-02-05T08:29:02;48.11;42.25;57.21;;
72686;Laerm;61365;52.162;4.500;2023-02-05T08:31:29;48.18;38.48;57.82;;
72686;Laerm;61365;52.162;4.500;2023-02-05T08:33:55;48.12;41.50;56.15;;
72686;Laerm;61365;52.162;4.500;2023-02-05T08:36:25;48.12;41.78;57.57;;
72686;Laerm;61365;52.162;4.500;2023-02-05T08:38:52;48.18;42.73;60.07;;
72686;Laerm;61365;52.162;4.500;2023-02-05T08:41:19;48.07;38.31;56.53;;
72686;Laerm;61365;52.162;4.500;2023-02-05T08:43:49;48.13;39.01;56.91;;
72686;Laerm;61365;52.162;4.500;2023-02-05T08:46:21;48.04;42.44;56.04;;
72686;Laerm;61365;52.162;4.500;2023-02-05T08:48:50;48.21;41.61;57.25;;
72686;Laerm;61365;52.162;4.500;2023-02-05T08:51:19;48.05;38.18;57.46;;
72686;Laerm;61365;52.162;4.500;2023-02-05T08:53:46;48.04;38.75;56.44;;
72686;Laerm;61365;52.162;4.500;2023-02-05T08:56:12;48.06;39.04;57.04;;
72686;Laerm;61365;52.162;4.500;2023-02-05T08:58:39;48.22;39.28;57.36;;
72686;Laerm;61365;52.162;4.500;2023-02-05T09:01:13;48.16;41.39;58.24;;
72686;Laerm;61365;52.162;4.500;2023-02-05T09:03:40;48.12;42.05;56.54;;
72686;Laerm;61365;52.162;4.500;2023-02-05T09:06:12;48.10;38.36;57.40;;
72686;Laerm;61365;52.162;4.500;2023-02-05T09:08:39;48.13;42.29;59.93;;
72686;Laerm;61365;52.162;4.500;2023-02-05T09:11:06;48.10;41.58;56.92;;
72686;Laerm;61365;52.162;4.500;2023-02-05T09:13:33;48.14;42.15;56.54;;
72686;Laerm;61365;52.162;4.500;2023-02-05T09:16:00;48.10;42.08;56.64;;
72686;Laerm;61365;52.162;4.500;2023-02-05T09:18:26;47.88;35.80;58.36;;
72686;Laerm;61365;52.162;4.500;2023-02-05T09:20:53;46.96;34.99;59.78;;
72686;Laerm;61365;52.162;4.500;2023-02-05T09:23:20;46.85;35.51;56.55;;
72686;Laerm;61365;52.162;4.500;2023-02-05T09:25:47;47.41;35.57;56.72;;
72686;Laerm;61365;52.162;4.500;2023-02-05T09:28:14;48.04;42.07;57.34;;
72686;Laerm;61365;52.162;4.500;2023-02-05T09:30:44;48.17;41.55;57.45;;
72686;Laerm;61365;52.162;4.500;2023-02-05T09:33:11;48.04;38.02;58.01;;
72686;Laerm;61365;52.162;4.500;2023-02-05T09:35:38;48.14;41.89;57.29;;
72686;Laerm;61365;52.162;4.500;2023-02-05T09:38:04;48.07;37.81;56.93;;
72686;Laerm;61365;52.162;4.500;2023-02-05T09:40:38;48.04;41.20;58.15;;
72686;Laerm;61365;52.162;4.500;2023-02-05T09:43:42;48.13;41.03;57.42;;
72686;Laerm;61365;52.162;4.500;2023-02-05T09:49:19;47.98;40.85;56.71;;
72686;Laerm;61365;52.162;4.500;2023-02-05T09:51:51;48.06;41.86;57.74;;
72686;Laerm;61365;52.162;4.500;2023-02-05T09:54:49;48.01;40.62;56.87;;
72686;Laerm;61365;52.162;4.500;2023-02-05T09:59:57;47.92;37.14;57.38;;
72686;Laerm;61365;52.162;4.500;2023-02-05T10:05:12;47.94;42.15;56.88;;
72686;Laerm;61365;52.162;4.500;2023-02-05T10:07:55;47.91;39.39;57.69;;
72686;Laerm;61365;52.162;4.500;2023-02-05T10:10:46;47.96;39.81;57.19;;
72686;Laerm;61365;52.162;4.500;2023-02-05T10:13:28;48.08;42.00;57.79;;
72686;Laerm;61365;52.162;4.500;2023-02-05T10:16:13;48.01;41.30;57.07;;
72686;Laerm;61365;52.162;4.500;2023-02-05T10:19:25;48.07;41.34;57.09;;
72686;Laerm;61365;52.162;4.500;2023-02-05T10:33:50;48.01;38.46;57.75;;
72686;Laerm;61365;52.162;4.500;2023-02-05T10:36:25;48.07;38.43;64.66;;
72686;Laerm;61365;52.162;4.500;2023-02-05T10:38:56;48.04;38.47;56.58;;
72686;Laerm;61365;52.162;4.500;2023-02-05T10:41:39;48.19;42.08;63.30;;
72686;Laerm;61365;52.162;4.500;2023-02-05T10:44:45;48.03;41.61;57.39;;
72686;Laerm;61365;52.162;4.500;2023-02-05T10:47:54;48.03;40.43;57.54;;
72686;Laerm;61365;52.162;4.500;2023-02-05T10:50:42;48.02;38.21;63.47;;
72686;Laerm;61365;52.162;4.500;2023-02-05T10:53:18;48.10;42.21;56.81;;
72686;Laerm;61365;52.162;4.500;2023-02-05T10:55:44;48.00;38.18;56.82;;
72686;Laerm;61365;52.162;4.500;2023-02-05T10:58:43;48.03;37.47;58.70;;
72686;Laerm;61365;52.162;4.500;2023-02-05T11:01:20;46.91;34.84;55.99;;
72686;Laerm;61365;52.162;4.500;2023-02-05T11:04:14;47.73;36.31;57.94;;
72686;Laerm;61365;52.162;4.500;2023-02-05T11:06:50;47.99;39.04;57.09;;
72686;Laerm;61365;52.162;4.500;2023-02-05T11:12:21;47.93;41.13;57.79;;
72686;Laerm;61365;52.162;4.500;2023-02-05T11:15:00;47.96;41.09;61.79;;
72686;Laerm;61365;52.162;4.500;2023-02-05T11:17:37;47.89;37.73;56.46;;
72686;Laerm;61365;52.162;4.500;2023-02-05T11:22:42;47.83;36.24;56.26;;
72686;Laerm;61365;52.162;4.500;2023-02-05T11:25:18;47.69;35.17;60.91;;
72686;Laerm;61365;52.162;4.500;2023-02-05T11:28:01;47.89;41.52;59.52;;
72686;Laerm;61365;52.162;4.500;2023-02-05T11:30:35;47.98;41.45;58.03;;
72686;Laerm;61365;52.162;4.500;2023-02-05T11:33:29;47.85;38.35;57.38;;
72686;Laerm;61365;52.162;4.500;2023-02-05T11:36:06;47.91;40.88;57.63;;
72686;Laerm;61365;52.162;4.500;2023-02-05T11:39:03;47.93;41.89;61.86;;
72686;Laerm;61365;52.162;4.500;2023-02-05T11:44:00;47.98;41.33;56.90;;
72686;Laerm;61365;52.162;4.500;2023-02-05T11:46:35;48.00;41.25;57.04;;
72686;Laerm;61365;52.162;4.500;2023-02-05T11:49:21;47.37;35.63;57.40;;
72686;Laerm;61365;52.162;4.500;2023-02-05T11:51:54;47.90;41.40;57.67;;
72686;Laerm;61365;52.162;4.500;2023-02-05T11:54:27;47.94;40.57;61.84;;
72686;Laerm;61365;52.162;4.500;2023-02-05T12:00:19;47.89;41.31;57.24;;
72686;Laerm;61365;52.162;4.500;2023-02-05T12:02:44;47.91;38.84;57.81;;
72686;Laerm;61365;52.162;4.500;2023-02-05T12:10:55;47.77;39.93;56.38;;
72686;Laerm;61365;52.162;4.500;2023-02-05T12:19:22;47.79;38.33;57.47;;
72686;Laerm;61365;52.162;4.500;2023-02-05T12:22:22;47.87;38.38;59.70;;
72686;Laerm;61365;52.162;4.500;2023-02-05T12:36:26;47.86;40.65;60.83;;
72686;Laerm;61365;52.162;4.500;2023-02-05T12:39:30;47.87;40.50;57.69;;
72686;Laerm;61365;52.162;4.500;2023-02-05T12:50:48;47.75;37.53;57.12;;
72686;Laerm;61365;52.162;4.500;2023-02-05T12:56:37;47.89;41.00;56.23;;
72686;Laerm;61365;52.162;4.500;2023-02-05T12:59:22;47.87;38.40;56.84;;
72686;Laerm;61365;52.162;4.500;2023-02-05T13:04:48;47.80;38.90;57.53;;
72686;Laerm;61365;52.162;4.500;2023-02-05T13:07:37;47.78;39.06;57.60;;
72686;Laerm;61365;52.162;4.500;2023-02-05T13:10:17;47.82;39.26;56.93;;
72686;Laerm;61365;52.162;4.500;2023-02-05T13:12:52;47.81;39.00;61.26;;
72686;Laerm;61365;52.162;4.500;2023-02-05T13:15:31;47.03;35.97;58.96;;
72686;Laerm;61365;52.162;4.500;2023-02-05T13:18:33;46.78;36.21;61.43;;
72686;Laerm;61365;52.162;4.500;2023-02-05T13:21:15;46.84;36.45;56.41;;
72686;Laerm;61365;52.162;4.500;2023-02-05T13:24:31;47.73;35.93;61.00;;
72686;Laerm;61365;52.162;4.500;2023-02-05T13:27:32;47.83;40.64;56.22;;
72686;Laerm;61365;52.162;4.500;2023-02-05T13:30:46;47.86;40.59;56.77;;
72686;Laerm;61365;52.162;4.500;2023-02-05T13:33:15;47.88;40.78;56.42;;
72686;Laerm;61365;52.162;4.500;2023-02-05T13:39:42;47.26;35.97;56.72;;
72686;Laerm;61365;52.162;4.500;2023-02-05T13:42:22;47.68;36.41;61.69;;
72686;Laerm;61365;52.162;4.500;2023-02-05T13:58:27;47.72;41.08;57.58;;
72686;Laerm;61365;52.162;4.500;2023-02-05T14:03:28;47.47;36.38;60.47;;
72686;Laerm;61365;52.162;4.500;2023-02-05T14:05:56;47.07;35.68;55.50;;
72686;Laerm;61365;52.162;4.500;2023-02-05T14:08:28;46.84;35.71;56.38;;
72686;Laerm;61365;52.162;4.500;2023-02-05T14:11:03;46.61;37.49;56.71;;
72686;Laerm;61365;52.162;4.500;2023-02-05T14:13:33;46.68;36.82;59.93;;
72686;Laerm;61365;52.162;4.500;2023-02-05T14:26:49;47.70;38.81;56.80;;
72686;Laerm;61365;52.162;4.500;2023-02-05T14:29:44;47.65;40.76;56.47;;
72686;Laerm;61365;52.162;4.500;2023-02-05T14:32:12;47.81;39.44;56.71;;
72686;Laerm;61365;52.162;4.500;2023-02-05T14:37:22;47.81;40.33;60.19;;
72686;Laerm;61365;52.162;4.500;2023-02-05T14:39:50;47.78;38.45;57.77;;
72686;Laerm;61365;52.162;4.500;2023-02-05T14:42:19;47.80;38.48;57.20;;
72686;Laerm;61365;52.162;4.500;2023-02-05T14:44:53;47.85;39.11;60.99;;
72686;Laerm;61365;52.162;4.500;2023-02-05T14:47:29;47.90;40.15;56.51;;
72686;Laerm;61365;52.162;4.500;2023-02-05T14:50:06;47.78;40.79;56.72;;
72686;Laerm;61365;52.162;4.500;2023-02-05T14:53:05;47.86;39.99;56.99;;
72686;Laerm;61365;52.162;4.500;2023-02-05T14:55:40;47.72;41.10;58.25;;
72686;Laerm;61365;52.162;4.500;2023-02-05T14:58:27;47.36;36.02;56.49;;
72686;Laerm;61365;52.162;4.500;2023-02-05T15:04:04;47.86;38.38;57.64;;
72686;Laerm;61365;52.162;4.500;2023-02-05T15:06:39;47.80;40.05;58.29;;
72686;Laerm;61365;52.162;4.500;2023-02-05T15:09:21;47.81;41.13;56.90;;
72686;Laerm;61365;52.162;4.500;2023-02-05T15:12:34;47.93;38.64;57.04;;
72686;Laerm;61365;52.162;4.500;2023-02-05T15:15:32;47.84;40.39;57.14;;
72686;Laerm;61365;52.162;4.500;2023-02-05T15:18:09;47.77;39.55;57.24;;
72686;Laerm;61365;52.162;4.500;2023-02-05T15:20:39;47.83;40.21;56.92;;
72686;Laerm;61365;52.162;4.500;2023-02-05T15:23:20;47.95;41.19;57.49;;
72686;Laerm;61365;52.162;4.500;2023-02-05T15:26:06;47.86;38.27;61.37;;
72686;Laerm;61365;52.162;4.500;2023-02-05T15:28:40;47.87;38.96;57.23;;
72686;Laerm;61365;52.162;4.500;2023-02-05T15:31:25;47.88;40.42;57.19;;
72686;Laerm;61365;52.162;4.500;2023-02-05T15:34:22;47.90;39.95;56.86;;
72686;Laerm;61365;52.162;4.500;2023-02-05T15:37:03;47.80;40.57;57.39;;
72686;Laerm;61365;52.162;4.500;2023-02-05T15:42:37;47.81;39.00;57.32;;
72686;Laerm;61365;52.162;4.500;2023-02-05T15:45:24;47.32;35.28;56.56;;
72686;Laerm;61365;52.162;4.500;2023-02-05T15:48:13;47.04;35.14;56.41;;
72686;Laerm;61365;52.162;4.500;2023-02-05T15:50:51;46.96;35.82;58.60;;
72686;Laerm;61365;52.162;4.500;2023-02-05T15:53:38;47.02;36.16;55.88;;
72686;Laerm;61365;52.162;4.500;2023-02-05T15:58:59;46.93;36.22;56.00;;
72686;Laerm;61365;52.162;4.500;2023-02-05T16:01:30;47.26;35.97;56.06;;
72686;Laerm;61365;52.162;4.500;2023-02-05T16:03:58;47.83;39.41;58.03;;
72686;Laerm;61365;52.162;4.500;2023-02-05T16:06:27;47.81;40.45;56.88;;
72686;Laerm;61365;52.162;4.500;2023-02-05T16:08:56;47.92;39.37;63.17;;
72686;Laerm;61365;52.162;4.500;2023-02-05T16:11:34;47.84;39.04;57.52;;
72686;Laerm;61365;52.162;4.500;2023-02-05T16:14:12;47.96;41.90;59.56;;
72686;Laerm;61365;52.162;4.500;2023-02-05T16:17:08;47.92;40.56;61.64;;
72686;Laerm;61365;52.162;4.500;2023-02-05T16:19:49;47.86;40.60;61.27;;
72686;Laerm;61365;52.162;4.500;2023-02-05T16:22:36;47.87;37.42;56.55;;
72686;Laerm;61365;52.162;4.500;2023-02-05T16:25:39;47.83;38.61;57.76;;
72686;Laerm;61365;52.162;4.500;2023-02-05T16:28:23;47.25;35.56;56.67;;
72686;Laerm;61365;52.162;4.500;2023-02-05T16:30:55;47.81;36.75;56.38;;
72686;Laerm;61365;52.162;4.500;2023-02-05T16:36:04;46.91;36.24;60.42;;
72686;Laerm;61365;52.162;4.500;2023-02-05T16:38:34;46.83;36.02;55.81;;
72686;Laerm;61365;52.162;4.500;2023-02-05T16:41:25;46.93;35.65;62.83;;
72686;Laerm;61365;52.162;4.500;2023-02-05T16:43:54;46.89;35.35;56.20;;